Time;durP1;ratioP1;P1;durP2;ratioP2;P2;SDS_P1;SDS_P2;PMS_P1;PMS_P2;Temp;Humidity;BMP_temperature;BMP_pressure;BME280_temperature;BME280_humidity;BME280_pressure;Samples;Min_cycle;Max_cycle;Signal;HPM_P1;HPM_P2
2023/04/15 00:04:27;;;;;;;13.93;9.63;;;;;;;9.85;81.25;98814.16;30612699;28;96871;-65
2023/04/15 00:19:27;;;;;;;12.23;8.27;;;;;;;9.82;81.57;98815.34;30611159;28;96735;-65
2023/04/15 00:34:28;;;;;;;11.07;8.43;;;;;;;9.92;81.55;98812.31;30615996;28;96922;-66
2023/04/15 00:49:28;;;;;;;12.02;8.25;;;;;;;9.95;81.21;98818.06;30629545;28;110668;-65
2023/04/15 01:04:29;;;;;;;11.50;8.25;;;;;;;9.92;80.83;98817.63;30628826;28;96975;-66
2023/04/15 01:19:30;;;;;;;14.95;8.45;;;;;;;9.94;81.28;98818.28;30627206;28;97325;-65
2023/04/15 01:34:30;;;;;;;12.20;8.40;;;;;;;9.94;81.05;98820.94;30625892;28;96645;-66
2023/04/15 01:49:31;;;;;;;10.88;7.82;;;;;;;9.92;80.73;98830.94;30623934;28;97154;-66
2023/04/15 02:04:33;;;;;;;11.25;8.18;;;;;;;9.92;81.10;98841.56;30623370;28;97328;-66
2023/04/15 02:19:34;;;;;;;12.10;8.67;;;;;;;9.59;80.16;98836.94;30621770;28;97170;-65
2023/04/15 02:34:34;;;;;;;17.17;9.07;;;;;;;9.11;81.23;98853.63;30620380;28;96941;-66
2023/04/15 02:49:35;;;;;;;17.90;10.65;;;;;;;8.97;81.72;98852.72;30618416;28;96698;-65
2023/04/15 03:04:35;;;;;;;15.18;10.73;;;;;;;8.88;81.87;98881.22;30615841;28;103630;-65
2023/04/15 03:19:35;;;;;;;14.25;9.23;;;;;;;8.77;81.51;98906.44;30614945;28;103990;-65
2023/04/15 03:34:36;;;;;;;18.48;11.20;;;;;;;8.43;80.98;98913.25;30613297;28;97097;-65
2023/04/15 03:49:36;;;;;;;15.23;9.27;;;;;;;8.09;80.59;98962.44;30609471;28;110517;-65
2023/04/15 04:04:36;;;;;;;19.80;11.02;;;;;;;7.85;80.99;98976.00;30609656;28;109363;-65
2023/04/15 04:19:37;;;;;;;18.10;11.38;;;;;;;7.70;81.40;98999.84;30632009;28;96667;-65
2023/04/15 04:34:37;;;;;;;17.33;9.85;;;;;;;7.64;80.94;99014.63;30629952;28;110838;-65
2023/04/15 04:49:37;;;;;;;10.40;6.93;;;;;;;7.65;80.78;99042.78;30628710;28;97273;-65
2023/04/15 05:04:38;;;;;;;9.30;5.90;;;;;;;7.76;80.57;99045.00;30627541;28;96784;-65
2023/04/15 05:19:38;;;;;;;14.48;7.32;;;;;;;7.68;79.47;99046.88;30701261;28;97741;-65
2023/04/15 05:34:38;;;;;;;10.00;6.55;;;;;;;7.90;79.52;99071.69;30671725;28;114032;-65
2023/04/15 05:49:39;;;;;;;5.75;3.40;;;;;;;7.95;78.95;99082.59;30622539;28;96631;-65
2023/04/15 06:04:39;;;;;;;2.45;1.52;;;;;;;8.14;77.00;99103.28;30621565;28;96721;-65
2023/04/15 06:19:39;;;;;;;1.55;0.98;;;;;;;8.12;75.68;99126.53;30620059;28;97032;-65
2023/04/15 06:34:40;;;;;;;1.60;1.10;;;;;;;8.45;74.53;99128.06;30617650;28;114247;-68
2023/04/15 06:49:41;;;;;;;1.40;0.93;;;;;;;8.80;73.39;99130.97;30616247;28;96763;-65
2023/04/15 07:04:42;;;;;;;1.63;1.00;;;;;;;8.60;71.28;99144.81;30692705;28;96884;-64
2023/04/15 07:19:42;;;;;;;1.35;0.65;;;;;;;8.79;69.21;99158.56;30713219;28;97338;-64
2023/04/15 07:34:43;;;;;;;0.68;0.55;;;;;;;8.95;69.27;99174.31;30691822;28;108482;-64
2023/04/15 07:49:44;;;;;;;2.65;0.70;;;;;;;9.34;68.16;99177.63;30611471;28;96776;-64
2023/04/15 08:04:44;;;;;;;0.75;0.47;;;;;;;10.32;65.57;99185.09;30610198;28;96667;-65
2023/04/15 08:19:44;;;;;;;0.85;0.63;;;;;;;11.27;64.72;99206.78;30607173;28;111586;-64
2023/04/15 08:34:45;;;;;;;1.67;0.90;;;;;;;12.45;62.61;99218.09;30703984;28;97487;-65
2023/04/15 08:49:47;;;;;;;1.60;0.82;;;;;;;14.84;57.73;99232.38;30728081;28;97496;-65
2023/04/15 09:04:47;;;;;;;4.33;0.50;;;;;;;16.65;51.50;99240.69;30643333;28;97522;-65
2023/04/15 09:19:47;;;;;;;0.98;0.57;;;;;;;21.03;45.93;99233.56;30624019;28;110045;-64
2023/04/15 09:34:48;;;;;;;0.30;0.30;;;;;;;23.28;36.06;99243.03;30622848;28;96989;-64
2023/04/15 09:49:56;;;;;;;0.60;0.40;;;;;;;31.28;27.13;99258.97;30621381;28;96703;-70
2023/04/15 10:04:56;;;;;;;;;;;;;;;27.68;24.59;99264.63;30651170;28;97123;-68
2023/04/15 10:19:59;;;;;;;0.32;0.10;;;;;;;33.53;18.03;99257.47;30669266;28;97557;-67
2023/04/15 10:35:00;;;;;;;0.73;0.30;;;;;;;21.92;27.80;99269.69;30621437;28;96999;-66
2023/04/15 10:50:01;;;;;;;0.20;0.20;;;;;;;23.24;28.22;99274.56;30616505;28;96597;-65
2023/04/15 11:05:01;;;;;;;0.30;0.27;;;;;;;19.65;30.32;99288.06;30614695;28;96532;-65
2023/04/15 11:20:03;;;;;;;0.73;0.50;;;;;;;23.46;25.88;99281.56;30612798;28;96824;-65
2023/04/15 11:35:04;;;;;;;3.50;0.50;;;;;;;21.84;28.79;99308.16;30612134;28;96950;-65
2023/04/15 11:50:17;;;;;;;0.50;0.38;;;;;;;22.99;28.16;99303.41;30610733;28;96690;-65
2023/04/15 12:05:17;;;;;;;0.77;0.40;;;;;;;23.54;26.74;99315.50;30610804;28;97292;-66
2023/04/15 12:20:24;;;;;;;;;;;;;;;23.60;27.15;99322.56;30608765;28;96713;-65
2023/04/15 12:35:24;;;;;;;3.67;0.73;;;;;;;22.67;28.91;99320.00;30621965;28;97479;-65
2023/04/15 12:50:24;;;;;;;1.33;0.70;;;;;;;21.28;28.52;99328.50;30627707;28;96939;-67
2023/04/15 13:05:25;;;;;;;1.63;1.07;;;;;;;19.06;32.11;99321.84;30626207;28;96773;-65
2023/04/15 13:20:26;;;;;;;0.55;0.52;;;;;;;18.26;33.30;99330.78;30622802;28;97532;-65
2023/04/15 13:35:26;;;;;;;0.77;0.53;;;;;;;19.81;30.91;99330.44;30623123;28;97036;-65
2023/04/15 13:50:27;;;;;;;1.17;0.77;;;;;;;19.64;32.36;99332.34;30621561;28;97715;-68
2023/04/15 14:05:27;;;;;;;0.40;0.40;;;;;;;18.44;33.43;99326.25;30702838;28;97068;-64
2023/04/15 14:20:28;;;;;;;1.27;0.50;;;;;;;18.07;32.81;99340.09;30740124;28;109532;-65
2023/04/15 14:35:28;;;;;;;1.45;0.65;;;;;;;18.23;33.31;99346.59;30739859;28;96595;-63
2023/04/15 14:50:29;;;;;;;1.27;0.73;;;;;;;17.90;33.69;99357.00;30724233;28;96840;-64
2023/04/15 15:05:29;;;;;;;2.95;1.15;;;;;;;17.70;33.85;99375.44;30726887;28;96794;-63
2023/04/15 15:20:30;;;;;;;2.30;0.90;;;;;;;17.15;34.63;99374.78;30626214;28;96644;-63
2023/04/15 15:35:31;;;;;;;1.27;0.80;;;;;;;17.52;34.43;99385.31;30731408;28;96817;-64
2023/04/15 15:50:32;;;;;;;2.07;1.20;;;;;;;17.79;35.29;99410.94;30731671;28;96766;-63
2023/04/15 16:05:34;;;;;;;1.90;1.00;;;;;;;17.29;36.46;99417.63;30744689;28;97261;-63
2023/04/15 16:20:34;;;;;;;6.33;2.40;;;;;;;16.40;37.56;99432.56;30699205;28;96940;-63
2023/04/15 16:35:35;;;;;;;4.07;1.08;;;;;;;15.51;38.92;99452.56;30702106;28;96829;-64
2023/04/15 16:50:36;;;;;;;3.47;1.63;;;;;;;14.87;40.03;99470.56;30709689;28;105611;-65
2023/04/15 17:05:36;;;;;;;5.10;1.90;;;;;;;14.26;41.08;99483.41;30720714;28;97348;-64
2023/04/15 17:20:38;;;;;;;5.10;1.90;;;;;;;13.52;42.80;99513.00;30754280;28;97327;-64
2023/04/15 17:35:38;;;;;;;4.83;1.90;;;;;;;12.98;44.20;99516.63;30746028;28;97007;-65
2023/04/15 17:50:39;;;;;;;3.92;2.08;;;;;;;12.51;45.34;99546.69;30676810;28;97549;-65
2023/04/15 18:05:39;;;;;;;8.35;3.50;;;;;;;12.22;46.60;99587.84;30672765;28;97307;-66
2023/04/15 18:20:40;;;;;;;11.35;5.20;;;;;;;12.02;50.42;99617.88;30723113;28;97122;-66
2023/04/15 18:35:41;;;;;;;8.70;6.45;;;;;;;11.66;53.31;99640.13;30721015;28;105383;-65
2023/04/15 18:50:42;;;;;;;10.77;7.03;;;;;;;11.44;54.98;99657.97;30674435;28;96720;-65
2023/04/15 19:05:42;;;;;;;12.93;7.95;;;;;;;11.26;56.97;99666.41;30621820;28;97485;-65
2023/04/15 19:20:43;;;;;;;16.55;7.57;;;;;;;11.14;58.10;99695.38;30688601;28;97369;-66
2023/04/15 19:35:43;;;;;;;13.52;8.57;;;;;;;10.98;58.69;99696.38;30658924;28;99755;-65
2023/04/15 19:50:43;;;;;;;14.30;8.27;;;;;;;10.85;59.57;99709.53;30719070;28;98034;-64
2023/04/15 20:05:44;;;;;;;11.32;8.30;;;;;;;10.72;60.58;99718.19;30689814;28;96777;-64
2023/04/15 20:20:45;;;;;;;14.20;8.85;;;;;;;10.65;61.12;99728.72;30656333;28;97147;-67
2023/04/15 20:35:45;;;;;;;12.83;8.57;;;;;;;10.54;61.87;99741.66;30723440;28;96705;-65
2023/04/15 20:50:45;;;;;;;13.65;8.52;;;;;;;10.41;62.16;99748.44;30731048;28;104758;-67
2023/04/15 21:05:46;;;;;;;14.65;9.25;;;;;;;10.28;63.19;99765.00;30749612;28;97044;-65
2023/04/15 21:20:54;;;;;;;15.40;9.52;;;;;;;10.12;63.67;99781.91;30748100;28;98066;-65
2023/04/15 21:35:55;;;;;;;14.17;9.20;;;;;;;9.85;64.09;99782.44;30746480;28;96667;-68
2023/04/15 21:50:59;;;;;;;20.33;10.93;;;;;;;9.93;65.46;99793.84;30745422;28;108304;-65
2023/04/15 22:06:02;;;;;;;19.20;9.70;;;;;;;10.06;65.50;99809.25;30743392;28;97531;-68
2023/04/15 22:21:03;;;;;;;15.23;9.40;;;;;;;9.77;65.47;99823.19;30743043;28;97537;-67
2023/04/15 22:36:03;;;;;;;15.50;10.00;;;;;;;9.36;65.92;99839.31;30741465;28;104647;-68
2023/04/15 22:51:05;;;;;;;19.60;12.35;;;;;;;9.17;67.32;99867.91;30732964;28;97140;-67
2023/04/15 23:06:05;;;;;;;48.73;22.27;;;;;;;9.01;67.96;99881.22;30688641;28;97081;-65
2023/04/15 23:21:05;;;;;;;27.65;15.00;;;;;;;9.06;68.15;99879.75;30618484;28;97074;-66
2023/04/15 23:36:06;;;;;;;28.23;16.08;;;;;;;8.99;69.16;99865.47;30660764;28;108550;-65
2023/04/15 23:51:07;;;;;;;25.67;14.23;;;;;;;8.90;69.21;99872.63;30701607;28;97517;-65
